Time;durP1;ratioP1;P1;durP2;ratioP2;P2;SDS_P1;SDS_P2;PMS_P1;PMS_P2;Temp;Humidity;BMP_temperature;BMP_pressure;BME280_temperature;BME280_humidity;BME280_pressure;Samples;Min_cycle;Max_cycle;Signal;HPM_P1;HPM_P2
2022/08/14 00:00:43;;;;;;;19.73;6.65;;;;;;;;;;4378675;32;20512;-68
2022/08/14 00:03:26;;;;;;;15.70;8.82;;;;;;;;;;4378582;32;20113;-68
2022/08/14 00:36:10;;;;;;;9.30;5.55;;;;;;;;;;4406278;28;20106;-61
2022/08/14 00:38:36;;;;;;;9.18;5.57;;;;;;;;;;4261079;33;20088;-59
2022/08/14 00:41:04;;;;;;;10.77;5.90;;;;;;;;;;4259396;33;20093;-66
2022/08/14 00:43:30;;;;;;;8.40;6.03;;;;;;;;;;4247340;33;20444;-67
2022/08/14 00:45:56;;;;;;;16.35;6.22;;;;;;;;;;4253114;33;20096;-59
2022/08/14 00:48:22;;;;;;;12.52;6.60;;;;;;;;;;4261310;33;20100;-58
2022/08/14 00:50:48;;;;;;;13.73;6.40;;;;;;;;;;4261504;33;20229;-59
2022/08/14 00:53:16;;;;;;;9.38;6.05;;;;;;;;;;4261277;33;20111;-68
2022/08/14 00:55:42;;;;;;;19.75;6.75;;;;;;;;;;4248555;33;20104;-66
2022/08/14 01:00:53;;;;;;;9.80;5.80;;;;;;;;;;4256438;33;20125;-67
2022/08/14 01:03:19;;;;;;;17.10;5.82;;;;;;;;;;4247105;33;20457;-66
2022/08/14 01:05:48;;;;;;;12.85;6.20;;;;;;;;;;4247131;33;20235;-67
2022/08/14 01:08:24;;;;;;;9.50;6.57;;;;;;;;;;4257143;33;20192;-67
2022/08/14 01:10:50;;;;;;;13.82;6.55;;;;;;;;;;4248839;33;20103;-67
2022/08/14 01:13:24;;;;;;;10.38;6.50;;;;;;;;;;4248206;33;20101;-67
2022/08/14 01:15:56;;;;;;;8.02;5.82;;;;;;;;;;4259892;33;20132;-67
2022/08/14 01:21:10;;;;;;;16.50;5.82;;;;;;;;;;4260382;33;20119;-67
2022/08/14 01:23:58;;;;;;;20.77;7.93;;;;;;;;;;4260953;33;20540;-67
2022/08/14 01:26:25;;;;;;;13.85;6.07;;;;;;;;;;4248840;33;20120;-67
2022/08/14 01:28:54;;;;;;;13.90;6.35;;;;;;;;;;4260987;33;20108;-67
2022/08/14 01:31:31;;;;;;;15.60;6.47;;;;;;;;;;4260998;33;20211;-67
2022/08/14 01:34:01;;;;;;;10.43;5.70;;;;;;;;;;4260962;33;20096;-67
2022/08/14 01:36:35;;;;;;;9.38;7.32;;;;;;;;;;4261001;33;20198;-67
2022/08/14 01:39:03;;;;;;;12.23;6.32;;;;;;;;;;4245302;33;20231;-67
2022/08/14 01:41:30;;;;;;;11.60;6.00;;;;;;;;;;4246756;33;20183;-67
2022/08/14 01:44:00;;;;;;;14.45;6.95;;;;;;;;;;4246732;33;20441;-67
2022/08/14 01:46:32;;;;;;;11.02;6.80;;;;;;;;;;4246763;33;20093;-67
2022/08/14 01:48:58;;;;;;;11.65;6.85;;;;;;;;;;4246980;33;20201;-67
2022/08/14 01:51:27;;;;;;;7.78;5.72;;;;;;;;;;4246611;33;20493;-67
2022/08/14 01:53:55;;;;;;;11.52;7.03;;;;;;;;;;4245114;33;20109;-66
2022/08/14 01:56:37;;;;;;;10.15;6.70;;;;;;;;;;4246639;33;20107;-67
2022/08/14 01:59:33;;;;;;;10.80;7.07;;;;;;;;;;4246579;33;20516;-68
2022/08/14 02:02:11;;;;;;;12.30;7.22;;;;;;;;;;4246550;33;20124;-66
2022/08/14 02:04:37;;;;;;;14.27;7.37;;;;;;;;;;4246615;33;20207;-67
2022/08/14 02:07:04;;;;;;;11.95;7.03;;;;;;;;;;4245088;33;20093;-67
2022/08/14 02:09:34;;;;;;;14.40;7.80;;;;;;;;;;4246439;33;20588;-67
2022/08/14 02:12:01;;;;;;;10.73;7.15;;;;;;;;;;4253268;33;20567;-67
2022/08/14 02:14:28;;;;;;;16.90;7.15;;;;;;;;;;4260540;33;20113;-67
2022/08/14 02:16:56;;;;;;;9.88;7.35;;;;;;;;;;4260493;33;20089;-67
2022/08/14 02:19:26;;;;;;;9.02;6.70;;;;;;;;;;4260508;33;20135;-67
2022/08/14 02:21:54;;;;;;;13.15;7.45;;;;;;;;;;4260739;33;20107;-67
2022/08/14 02:24:22;;;;;;;16.17;7.57;;;;;;;;;;4260378;33;20240;-67
2022/08/14 02:26:49;;;;;;;19.20;7.97;;;;;;;;;;4260500;33;20176;-67
2022/08/14 02:29:21;;;;;;;16.60;7.62;;;;;;;;;;4260389;33;20119;-67
2022/08/14 02:31:50;;;;;;;12.77;7.72;;;;;;;;;;4260575;33;20088;-67
2022/08/14 02:34:17;;;;;;;13.27;8.02;;;;;;;;;;4260328;33;20108;-67
2022/08/14 02:36:45;;;;;;;14.87;6.75;;;;;;;;;;4260302;33;20097;-67
2022/08/14 02:39:13;;;;;;;15.27;7.35;;;;;;;;;;4253540;33;20499;-67
2022/08/14 02:41:40;;;;;;;13.90;7.28;;;;;;;;;;4246492;33;20120;-67
2022/08/14 02:44:09;;;;;;;25.77;8.40;;;;;;;;;;4246363;33;20184;-67
2022/08/14 02:46:36;;;;;;;14.95;7.35;;;;;;;;;;4244949;33;20131;-67
2022/08/14 02:49:03;;;;;;;15.45;7.75;;;;;;;;;;4246345;33;20119;-67
2022/08/14 02:51:29;;;;;;;16.65;7.37;;;;;;;;;;4246102;33;20287;-67
2022/08/14 02:53:57;;;;;;;16.05;7.40;;;;;;;;;;4246125;33;20109;-67
2022/08/14 02:56:24;;;;;;;10.55;7.60;;;;;;;;;;4244598;33;20192;-67
2022/08/14 02:58:51;;;;;;;12.43;7.18;;;;;;;;;;4245846;33;20109;-68
2022/08/14 03:01:19;;;;;;;15.32;7.82;;;;;;;;;;4246008;33;20108;-68
2022/08/14 03:03:47;;;;;;;12.48;7.95;;;;;;;;;;4245927;33;20485;-67
2022/08/14 03:06:15;;;;;;;15.30;6.95;;;;;;;;;;4246103;33;20655;-67
2022/08/14 03:08:41;;;;;;;14.32;7.45;;;;;;;;;;4244603;33;20108;-67
2022/08/14 03:11:10;;;;;;;13.48;8.68;;;;;;;;;;4246066;33;20108;-67
2022/08/14 03:13:41;;;;;;;16.60;8.38;;;;;;;;;;4246091;33;20105;-67
2022/08/14 03:16:12;;;;;;;23.55;9.77;;;;;;;;;;4246071;33;20128;-67
2022/08/14 03:18:44;;;;;;;17.98;7.40;;;;;;;;;;4246015;33;20184;-67
2022/08/14 03:21:17;;;;;;;10.45;7.22;;;;;;;;;;4246007;33;20116;-66
2022/08/14 03:23:45;;;;;;;19.05;8.10;;;;;;;;;;4245922;33;20092;-67
2022/08/14 03:26:14;;;;;;;16.73;7.85;;;;;;;;;;4245836;33;20128;-67
2022/08/14 03:28:42;;;;;;;14.25;7.55;;;;;;;;;;4244233;33;20119;-67
2022/08/14 03:31:09;;;;;;;13.50;6.93;;;;;;;;;;4245858;33;20108;-68
2022/08/14 03:33:36;;;;;;;12.77;7.55;;;;;;;;;;4245610;33;20539;-66
2022/08/14 03:36:21;;;;;;;15.63;7.53;;;;;;;;;;4244209;33;20200;-67
2022/08/14 03:38:49;;;;;;;10.27;6.75;;;;;;;;;;4245435;33;20100;-68
2022/08/14 03:41:20;;;;;;;22.37;5.97;;;;;;;;;;4245448;33;20139;-67
2022/08/14 03:43:49;;;;;;;10.50;5.90;;;;;;;;;;4245522;33;20112;-67
2022/08/14 03:46:15;;;;;;;11.88;5.60;;;;;;;;;;4247995;33;20117;-67
2022/08/14 03:48:42;;;;;;;10.15;5.90;;;;;;;;;;4247936;33;20097;-68
2022/08/14 03:51:10;;;;;;;9.10;5.62;;;;;;;;;;4247878;33;20103;-67
2022/08/14 03:53:41;;;;;;;9.20;5.35;;;;;;;;;;4246228;33;20179;-67
2022/08/14 03:56:13;;;;;;;7.75;5.07;;;;;;;;;;4247674;33;20100;-68
2022/08/14 03:58:41;;;;;;;14.38;5.30;;;;;;;;;;4247573;33;20109;-67
2022/08/14 04:01:08;;;;;;;12.65;5.43;;;;;;;;;;4246411;33;20117;-67
2022/08/14 04:03:34;;;;;;;13.05;5.70;;;;;;;;;;4247635;33;20566;-67
2022/08/14 04:06:01;;;;;;;8.15;5.20;;;;;;;;;;4246321;33;20132;-67
2022/08/14 04:08:28;;;;;;;9.57;5.60;;;;;;;;;;4247824;33;20128;-67
2022/08/14 04:10:56;;;;;;;11.63;5.57;;;;;;;;;;4247597;33;20124;-67
2022/08/14 04:13:22;;;;;;;12.13;5.10;;;;;;;;;;4247412;33;20135;-67
2022/08/14 04:15:48;;;;;;;9.10;5.07;;;;;;;;;;4247541;33;20096;-67
2022/08/14 04:18:14;;;;;;;9.98;5.28;;;;;;;;;;4247551;33;20110;-67
2022/08/14 04:20:44;;;;;;;11.10;5.50;;;;;;;;;;4247619;33;20479;-68
2022/08/14 04:23:10;;;;;;;9.23;5.00;;;;;;;;;;4247670;33;20104;-67
2022/08/14 04:25:36;;;;;;;7.28;5.40;;;;;;;;;;4247442;33;20522;-67
2022/08/14 04:28:04;;;;;;;8.30;5.10;;;;;;;;;;4247339;33;20123;-67
2022/08/14 04:30:38;;;;;;;9.20;5.20;;;;;;;;;;4247475;33;20120;-67
2022/08/14 04:33:06;;;;;;;6.75;4.90;;;;;;;;;;4247358;33;20119;-68
2022/08/14 04:35:35;;;;;;;5.25;4.47;;;;;;;;;;4247433;33;20129;-68
2022/08/14 04:43:39;;;;;;;10.13;5.18;;;;;;;;;;4247292;33;20096;-68
2022/08/14 04:46:11;;;;;;;12.90;5.45;;;;;;;;;;4247506;33;20460;-67
2022/08/14 04:48:38;;;;;;;10.20;5.32;;;;;;;;;;4247333;33;20104;-67
2022/08/14 04:51:06;;;;;;;7.25;5.30;;;;;;;;;;4247170;33;20488;-68
2022/08/14 04:53:33;;;;;;;6.20;4.50;;;;;;;;;;4247128;33;20191;-68
2022/08/14 04:55:59;;;;;;;7.35;5.32;;;;;;;;;;4247155;33;20360;-67
2022/08/14 04:58:27;;;;;;;11.07;5.15;;;;;;;;;;4247090;33;20092;-67
2022/08/14 05:00:55;;;;;;;10.48;4.85;;;;;;;;;;4247345;33;20124;-67
2022/08/14 05:03:24;;;;;;;8.32;4.53;;;;;;;;;;4247268;33;20665;-67
2022/08/14 05:05:51;;;;;;;6.95;4.75;;;;;;;;;;4247063;33;20165;-67
2022/08/14 05:08:17;;;;;;;7.70;4.20;;;;;;;;;;4247272;33;20212;-67
2022/08/14 05:10:49;;;;;;;10.10;4.78;;;;;;;;;;4245818;33;20108;-67
2022/08/14 05:13:15;;;;;;;5.75;4.30;;;;;;;;;;4247029;33;20127;-67
2022/08/14 05:15:43;;;;;;;13.45;4.82;;;;;;;;;;4247293;33;20113;-67
2022/08/14 05:18:12;;;;;;;5.90;4.37;;;;;;;;;;4246830;33;20112;-67
2022/08/14 05:20:44;;;;;;;7.20;3.67;;;;;;;;;;4247142;33;20107;-68
2022/08/14 05:23:17;;;;;;;10.43;4.53;;;;;;;;;;4246939;33;20107;-67
2022/08/14 05:25:45;;;;;;;6.82;4.28;;;;;;;;;;4247086;33;20204;-67
2022/08/14 05:28:17;;;;;;;9.77;4.30;;;;;;;;;;4246759;33;20195;-67
2022/08/14 05:30:48;;;;;;;8.35;4.37;;;;;;;;;;4246766;33;20092;-67
2022/08/14 05:33:17;;;;;;;4.47;3.70;;;;;;;;;;4246766;33;20116;-67
2022/08/14 05:35:47;;;;;;;5.43;4.30;;;;;;;;;;4246880;33;20104;-67
2022/08/14 05:38:16;;;;;;;6.03;3.70;;;;;;;;;;4246528;33;20505;-67
2022/08/14 05:40:43;;;;;;;7.45;3.28;;;;;;;;;;4246695;33;20117;-68
2022/08/14 05:43:09;;;;;;;4.65;4.00;;;;;;;;;;4246767;33;20112;-69
2022/08/14 05:45:35;;;;;;;8.77;4.00;;;;;;;;;;4246859;33;20196;-67
2022/08/14 05:48:02;;;;;;;10.13;4.15;;;;;;;;;;4246707;33;20119;-67
2022/08/14 05:50:28;;;;;;;6.20;4.05;;;;;;;;;;4245404;33;20516;-68
2022/08/14 05:52:55;;;;;;;10.50;4.18;;;;;;;;;;4246722;33;20604;-67
2022/08/14 05:55:21;;;;;;;9.60;4.28;;;;;;;;;;4246636;33;20223;-67
2022/08/14 05:57:52;;;;;;;12.77;4.00;;;;;;;;;;4246566;33;20113;-67
2022/08/14 06:00:20;;;;;;;7.53;4.82;;;;;;;;;;4246642;33;20104;-67
2022/08/14 06:02:46;;;;;;;7.40;4.25;;;;;;;;;;4245496;33;20536;-67
2022/08/14 06:05:12;;;;;;;6.85;3.72;;;;;;;;;;4246363;33;20104;-67
2022/08/14 06:07:38;;;;;;;8.85;3.70;;;;;;;;;;4246079;33;20234;-66
2022/08/14 06:10:05;;;;;;;11.98;4.07;;;;;;;;;;4246410;33;20136;-67
2022/08/14 06:12:32;;;;;;;8.15;4.12;;;;;;;;;;4246488;33;20168;-67
2022/08/14 06:14:58;;;;;;;12.20;3.92;;;;;;;;;;4246384;33;20096;-67
2022/08/14 06:17:24;;;;;;;11.12;4.12;;;;;;;;;;4246413;33;20089;-67
2022/08/14 06:19:50;;;;;;;7.90;3.95;;;;;;;;;;4246424;33;20528;-66
2022/08/14 06:22:17;;;;;;;7.43;3.78;;;;;;;;;;4246342;33;20516;-67
2022/08/14 06:24:43;;;;;;;4.28;3.45;;;;;;;;;;4246375;33;20111;-68
2022/08/14 06:27:09;;;;;;;7.20;3.65;;;;;;;;;;4246276;33;20116;-67
2022/08/14 06:29:36;;;;;;;5.35;3.45;;;;;;;;;;4244760;33;20516;-67
2022/08/14 06:32:03;;;;;;;6.47;3.97;;;;;;;;;;4246232;33;20124;-67
2022/08/14 06:34:29;;;;;;;7.37;3.97;;;;;;;;;;4246223;33;20129;-66
2022/08/14 06:36:55;;;;;;;6.30;3.60;;;;;;;;;;4246103;33;20128;-67
2022/08/14 06:39:22;;;;;;;10.73;3.50;;;;;;;;;;4246087;33;20099;-67
2022/08/14 06:41:48;;;;;;;5.53;3.40;;;;;;;;;;4246143;33;20599;-67
2022/08/14 06:44:14;;;;;;;8.45;4.35;;;;;;;;;;4246103;33;20751;-67
2022/08/14 06:46:40;;;;;;;10.38;3.65;;;;;;;;;;4246146;33;20116;-67
2022/08/14 06:49:07;;;;;;;10.60;3.83;;;;;;;;;;4245966;33;20113;-67
2022/08/14 06:51:34;;;;;;;15.43;4.07;;;;;;;;;;4246056;33;20108;-67
2022/08/14 06:54:00;;;;;;;8.52;4.93;;;;;;;;;;4245970;33;20085;-67
2022/08/14 06:56:26;;;;;;;5.87;3.17;;;;;;;;;;4246032;33;20104;-67
2022/08/14 06:58:52;;;;;;;6.55;3.85;;;;;;;;;;4245768;33;20129;-67
2022/08/14 07:06:48;;;;;;;5.50;3.33;;;;;;;;;;4245952;33;20108;-67
2022/08/14 07:09:14;;;;;;;6.40;3.35;;;;;;;;;;4245738;33;20204;-67
2022/08/14 07:11:41;;;;;;;9.55;2.83;;;;;;;;;;4245847;33;20135;-68
2022/08/14 07:14:07;;;;;;;6.57;2.70;;;;;;;;;;4245869;33;20219;-67
2022/08/14 07:16:33;;;;;;;3.33;2.65;;;;;;;;;;4245815;33;20199;-66
2022/08/14 07:18:59;;;;;;;9.05;2.97;;;;;;;;;;4245779;33;20142;-67
2022/08/14 07:21:25;;;;;;;6.47;3.12;;;;;;;;;;4247976;33;20113;-67
2022/08/14 07:23:51;;;;;;;4.57;2.87;;;;;;;;;;4247904;33;20140;-67
2022/08/14 07:26:17;;;;;;;5.90;2.70;;;;;;;;;;4246416;33;20135;-67
2022/08/14 07:28:44;;;;;;;2.83;2.58;;;;;;;;;;4247801;33;20181;-67
2022/08/14 07:31:11;;;;;;;7.25;2.62;;;;;;;;;;4247920;33;20113;-67
2022/08/14 07:33:40;;;;;;;2.95;2.58;;;;;;;;;;4247884;33;20294;-67
2022/08/14 07:36:09;;;;;;;5.18;2.50;;;;;;;;;;4247607;33;20132;-67
2022/08/14 07:38:35;;;;;;;3.40;2.80;;;;;;;;;;4246481;33;20123;-67
2022/08/14 07:41:01;;;;;;;7.70;3.00;;;;;;;;;;4247904;33;20105;-67
2022/08/14 07:43:28;;;;;;;3.15;2.62;;;;;;;;;;4247809;33;20188;-67
2022/08/14 07:45:54;;;;;;;6.93;2.50;;;;;;;;;;4248170;33;20096;-67
2022/08/14 07:48:20;;;;;;;5.07;2.62;;;;;;;;;;4247973;33;20677;-66
2022/08/14 07:50:49;;;;;;;4.62;2.55;;;;;;;;;;4248029;33;20101;-67
2022/08/14 07:53:16;;;;;;;12.02;3.25;;;;;;;;;;4247786;33;20105;-67
2022/08/14 07:55:44;;;;;;;3.62;2.50;;;;;;;;;;4247790;33;20112;-67
2022/08/14 07:58:10;;;;;;;3.95;2.37;;;;;;;;;;4234585;33;20533;-67
2022/08/14 08:00:37;;;;;;;3.42;2.58;;;;;;;;;;4247725;33;20116;-67
2022/08/14 08:03:08;;;;;;;5.53;2.50;;;;;;;;;;4247637;33;20108;-67
2022/08/14 08:05:35;;;;;;;6.50;2.50;;;;;;;;;;4247587;33;20155;-67
2022/08/14 08:08:02;;;;;;;5.12;2.30;;;;;;;;;;4247449;33;20124;-67
2022/08/14 08:10:31;;;;;;;2.25;2.05;;;;;;;;;;4247484;33;20518;-67
2022/08/14 08:12:58;;;;;;;5.97;2.10;;;;;;;;;;4247508;33;20163;-67
2022/08/14 08:15:25;;;;;;;3.37;2.15;;;;;;;;;;4247578;33;20096;-67
2022/08/14 08:17:51;;;;;;;7.70;2.87;;;;;;;;;;4246097;33;20128;-67
2022/08/14 08:20:19;;;;;;;6.12;2.37;;;;;;;;;;4246198;33;20109;-67
2022/08/14 08:22:47;;;;;;;3.60;2.20;;;;;;;;;;4247430;33;20564;-67
2022/08/14 08:25:13;;;;;;;3.47;2.12;;;;;;;;;;4247472;33;20108;-67
2022/08/14 08:27:39;;;;;;;12.32;3.22;;;;;;;;;;4246494;33;20096;-67
2022/08/14 08:30:09;;;;;;;9.30;2.78;;;;;;;;;;4247709;33;20111;-67
2022/08/14 08:32:40;;;;;;;3.55;1.80;;;;;;;;;;4247927;33;20143;-67
2022/08/14 08:35:16;;;;;;;2.42;2.22;;;;;;;;;;4247103;33;20112;-67
2022/08/14 08:37:42;;;;;;;5.05;2.67;;;;;;;;;;4247239;33;20096;-68
2022/08/14 08:40:08;;;;;;;2.75;2.28;;;;;;;;;;4247253;33;20101;-68
2022/08/14 08:42:34;;;;;;;2.47;2.10;;;;;;;;;;4247518;33;20414;-67
2022/08/14 08:45:00;;;;;;;5.07;2.10;;;;;;;;;;4247233;33;20100;-68
2022/08/14 08:47:37;;;;;;;2.45;2.20;;;;;;;;;;4245958;33;20215;-67
2022/08/14 08:50:03;;;;;;;5.78;2.25;;;;;;;;;;4247422;33;20481;-67
2022/08/14 08:52:29;;;;;;;5.32;2.33;;;;;;;;;;4247180;33;20113;-67
2022/08/14 08:54:55;;;;;;;14.87;2.92;;;;;;;;;;4247156;33;20211;-67
2022/08/14 08:57:21;;;;;;;3.78;2.30;;;;;;;;;;4246998;33;20112;-67
2022/08/14 08:59:47;;;;;;;5.10;2.17;;;;;;;;;;4247211;33;20152;-67
2022/08/14 09:02:17;;;;;;;2.55;2.30;;;;;;;;;;4247339;33;20583;-67
2022/08/14 09:04:43;;;;;;;8.20;2.50;;;;;;;;;;4246954;33;20100;-67
2022/08/14 09:07:10;;;;;;;3.53;2.15;;;;;;;;;;4247038;33;20112;-67
2022/08/14 09:09:50;;;;;;;5.12;2.80;;;;;;;;;;4247177;33;20151;-67
2022/08/14 09:12:17;;;;;;;5.35;2.25;;;;;;;;;;4246968;33;20121;-66
2022/08/14 09:14:43;;;;;;;3.10;2.22;;;;;;;;;;4247363;33;20116;-67
2022/08/14 09:17:09;;;;;;;2.70;2.17;;;;;;;;;;4246954;33;20200;-67
2022/08/14 09:19:38;;;;;;;5.10;2.45;;;;;;;;;;4247320;33;20125;-67
2022/08/14 09:22:07;;;;;;;5.30;2.67;;;;;;;;;;4246824;33;20089;-67
2022/08/14 09:24:33;;;;;;;2.70;1.87;;;;;;;;;;4246953;33;20113;-67
2022/08/14 09:26:59;;;;;;;2.60;2.08;;;;;;;;;;4246769;33;20199;-67
2022/08/14 09:29:25;;;;;;;3.30;2.30;;;;;;;;;;4246944;33;20120;-67
2022/08/14 09:31:53;;;;;;;4.57;2.08;;;;;;;;;;4246910;33;20611;-67
2022/08/14 09:34:19;;;;;;;4.62;2.75;;;;;;;;;;4246861;33;20491;-67
2022/08/14 09:36:56;;;;;;;9.88;2.40;;;;;;;;;;4247014;33;20112;-67
2022/08/14 09:39:22;;;;;;;5.80;2.05;;;;;;;;;;4246714;33;20112;-67
2022/08/14 09:42:21;;;;;;;4.35;2.40;;;;;;;;;;4246035;33;20576;-66
2022/08/14 09:44:55;;;;;;;10.25;2.40;;;;;;;;;;4245693;33;20539;-67
2022/08/14 09:47:39;;;;;;;4.68;1.98;;;;;;;;;;4246723;33;20128;-67
2022/08/14 09:50:44;;;;;;;2.40;2.08;;;;;;;;;;4246849;33;20199;-67
2022/08/14 09:53:10;;;;;;;7.32;2.33;;;;;;;;;;4246868;33;20105;-67
2022/08/14 09:55:37;;;;;;;3.15;2.72;;;;;;;;;;4246832;33;20105;-67
2022/08/14 09:58:19;;;;;;;7.90;1.85;;;;;;;;;;4245112;33;20117;-67
2022/08/14 10:00:47;;;;;;;5.40;2.30;;;;;;;;;;4246518;33;20127;-67
2022/08/14 10:03:24;;;;;;;9.85;2.42;;;;;;;;;;4246583;33;20192;-67
2022/08/14 10:05:51;;;;;;;4.80;2.60;;;;;;;;;;4246732;33;20576;-67
2022/08/14 10:08:19;;;;;;;7.82;2.40;;;;;;;;;;4246158;33;20109;-67
2022/08/14 10:10:45;;;;;;;8.55;2.00;;;;;;;;;;4246525;33;20085;-67
2022/08/14 10:13:23;;;;;;;5.53;2.10;;;;;;;;;;4246412;33;20109;-67
2022/08/14 10:15:49;;;;;;;3.47;1.62;;;;;;;;;;4246397;33;20553;-67
2022/08/14 10:18:17;;;;;;;13.20;1.98;;;;;;;;;;4244789;33;20147;-67
2022/08/14 10:21:00;;;;;;;5.40;1.95;;;;;;;;;;4246650;33;20215;-67
2022/08/14 10:23:38;;;;;;;2.90;1.73;;;;;;;;;;4246401;33;20437;-67
2022/08/14 10:26:06;;;;;;;3.90;1.80;;;;;;;;;;4246499;33;20117;-67
2022/08/14 10:29:03;;;;;;;3.62;1.75;;;;;;;;;;4246304;33;20108;-68
2022/08/14 10:31:33;;;;;;;8.65;2.15;;;;;;;;;;4246040;33;20208;-67
2022/08/14 10:34:19;;;;;;;7.85;1.92;;;;;;;;;;4246252;33;20449;-66
2022/08/14 10:36:48;;;;;;;2.15;1.83;;;;;;;;;;4246158;33;20196;-67
2022/08/14 10:39:20;;;;;;;4.97;3.17;;;;;;;;;;4245952;33;20112;-67
2022/08/14 10:41:46;;;;;;;5.53;2.08;;;;;;;;;;4246503;33;20093;-67
2022/08/14 10:44:17;;;;;;;3.17;1.60;;;;;;;;;;4246058;33;20298;-67
2022/08/14 10:46:52;;;;;;;2.78;2.05;;;;;;;;;;4246178;33;20470;-67
2022/08/14 10:49:20;;;;;;;1.92;1.80;;;;;;;;;;4246131;33;20096;-67
2022/08/14 10:52:06;;;;;;;4.70;1.70;;;;;;;;;;4246185;33;20561;-66
2022/08/14 10:54:43;;;;;;;3.83;1.90;;;;;;;;;;4247563;33;20223;-67
2022/08/14 10:57:18;;;;;;;4.03;2.22;;;;;;;;;;4248042;33;20222;-67
2022/08/14 10:59:57;;;;;;;4.55;1.90;;;;;;;;;;4248131;33;20445;-67
2022/08/14 11:02:36;;;;;;;6.78;1.87;;;;;;;;;;4246873;33;20125;-67
2022/08/14 11:05:16;;;;;;;4.50;1.80;;;;;;;;;;4248032;33;20129;-67
2022/08/14 11:07:56;;;;;;;3.80;2.00;;;;;;;;;;4246505;33;20104;-67
2022/08/14 11:10:38;;;;;;;2.60;1.80;;;;;;;;;;4248133;33;20136;-67
2022/08/14 11:13:04;;;;;;;7.53;2.10;;;;;;;;;;4247994;33;20097;-67
2022/08/14 11:15:30;;;;;;;3.35;1.95;;;;;;;;;;4248089;33;20128;-67
2022/08/14 11:17:56;;;;;;;2.65;2.45;;;;;;;;;;4248127;33;20111;-67
2022/08/14 11:20:24;;;;;;;6.82;2.10;;;;;;;;;;4248255;33;20191;-67
2022/08/14 11:22:55;;;;;;;2.15;1.90;;;;;;;;;;4247888;33;20573;-67
2022/08/14 11:25:22;;;;;;;4.47;2.05;;;;;;;;;;4246661;33;20120;-67
2022/08/14 11:27:53;;;;;;;2.08;1.87;;;;;;;;;;4247784;33;20125;-67
2022/08/14 11:30:22;;;;;;;3.90;2.10;;;;;;;;;;4248176;33;20108;-67
2022/08/14 11:32:49;;;;;;;6.15;2.33;;;;;;;;;;4246477;33;20185;-67
2022/08/14 11:35:18;;;;;;;4.82;2.05;;;;;;;;;;4248183;33;20124;-67
2022/08/14 11:37:58;;;;;;;8.43;2.00;;;;;;;;;;4247751;33;20472;-67
2022/08/14 11:40:27;;;;;;;2.55;1.70;;;;;;;;;;4247783;33;20128;-67
2022/08/14 11:42:54;;;;;;;3.83;2.03;;;;;;;;;;4247730;33;20123;-67
2022/08/14 11:45:25;;;;;;;3.20;2.03;;;;;;;;;;4247884;33;21120;-67
2022/08/14 11:47:52;;;;;;;1.95;1.80;;;;;;;;;;4247824;33;20539;-67
2022/08/14 11:50:22;;;;;;;1.83;1.60;;;;;;;;;;4247937;33;20112;-67
2022/08/14 11:52:48;;;;;;;1.80;1.60;;;;;;;;;;4247822;33;20553;-67
2022/08/14 11:55:15;;;;;;;1.67;1.58;;;;;;;;;;4247749;33;20199;-67
2022/08/14 11:57:45;;;;;;;2.87;1.90;;;;;;;;;;4247590;33;20603;-67
2022/08/14 12:00:15;;;;;;;2.85;2.20;;;;;;;;;;4246200;33;20537;-66
2022/08/14 12:02:56;;;;;;;2.35;1.98;;;;;;;;;;4247709;33;20102;-67
2022/08/14 12:05:38;;;;;;;3.20;1.98;;;;;;;;;;4247478;33;20187;-67
2022/08/14 12:08:06;;;;;;;4.72;2.03;;;;;;;;;;4246719;33;20452;-66
2022/08/14 12:10:33;;;;;;;3.62;2.87;;;;;;;;;;4247860;33;20555;-67
2022/08/14 12:13:32;;;;;;;3.12;1.90;;;;;;;;;;4245984;33;20105;-67
2022/08/14 12:16:00;;;;;;;3.87;1.70;;;;;;;;;;4223737;33;20544;-66
2022/08/14 12:18:31;;;;;;;3.92;1.80;;;;;;;;;;4247627;33;20129;-67
2022/08/14 12:20:57;;;;;;;5.75;1.92;;;;;;;;;;4247441;33;20294;-68
2022/08/14 12:23:24;;;;;;;2.70;1.87;;;;;;;;;;4245249;33;20113;-62
2022/08/14 12:26:09;;;;;;;1.73;1.58;;;;;;;;;;4247112;33;20227;-59
2022/08/14 12:28:37;;;;;;;1.40;1.30;;;;;;;;;;4246149;33;20097;-61
2022/08/14 12:31:18;;;;;;;3.50;2.20;;;;;;;;;;4245036;33;20476;-60
2022/08/14 12:34:14;;;;;;;4.03;1.95;;;;;;;;;;4245140;33;20281;-56
2022/08/14 12:36:42;;;;;;;5.28;3.12;;;;;;;;;;4241119;33;20105;-60
2022/08/14 12:39:19;;;;;;;4.03;2.87;;;;;;;;;;4247048;33;20112;-59
2022/08/14 12:41:51;;;;;;;3.78;2.35;;;;;;;;;;4246171;33;20183;-59
2022/08/14 12:44:28;;;;;;;4.22;3.25;;;;;;;;;;4247097;33;20513;-59
2022/08/14 12:47:03;;;;;;;7.80;3.60;;;;;;;;;;4247121;33;20119;-59
2022/08/14 12:49:29;;;;;;;4.55;3.72;;;;;;;;;;4247222;33;20168;-59
2022/08/14 12:51:57;;;;;;;3.85;2.72;;;;;;;;;;4247079;33;20123;-59
2022/08/14 12:54:23;;;;;;;2.70;2.00;;;;;;;;;;4247102;33;20118;-60
2022/08/14 12:56:49;;;;;;;2.40;2.20;;;;;;;;;;4245793;33;20572;-57
2022/08/14 12:59:15;;;;;;;4.97;2.00;;;;;;;;;;4245363;33;20524;-58
2022/08/14 13:01:44;;;;;;;6.72;2.50;;;;;;;;;;4245573;33;20112;-62
2022/08/14 13:04:13;;;;;;;3.87;2.60;;;;;;;;;;4246855;33;20109;-59
2022/08/14 13:06:46;;;;;;;6.28;2.70;;;;;;;;;;4245900;33;20124;-59
2022/08/14 13:09:15;;;;;;;4.60;2.37;;;;;;;;;;4247208;33;20101;-60
2022/08/14 13:11:48;;;;;;;11.55;2.95;;;;;;;;;;4247011;33;20658;-57
2022/08/14 13:14:24;;;;;;;5.05;2.90;;;;;;;;;;4245572;33;20116;-59
2022/08/14 13:16:54;;;;;;;2.12;1.85;;;;;;;;;;4246113;33;20124;-59
2022/08/14 13:19:21;;;;;;;6.80;2.08;;;;;;;;;;4246871;33;20116;-60
2022/08/14 13:21:50;;;;;;;5.68;2.40;;;;;;;;;;4246989;33;20506;-62
2022/08/14 13:24:18;;;;;;;3.60;2.30;;;;;;;;;;4246478;33;20121;-61
2022/08/14 13:26:45;;;;;;;2.92;1.87;;;;;;;;;;4246748;33;20111;-61
2022/08/14 13:29:14;;;;;;;4.57;2.15;;;;;;;;;;4246553;33;20524;-61
2022/08/14 13:31:43;;;;;;;2.47;2.05;;;;;;;;;;4233709;33;20546;-62
2022/08/14 13:34:14;;;;;;;2.22;1.83;;;;;;;;;;4245754;33;20109;-60
2022/08/14 13:36:40;;;;;;;2.65;2.00;;;;;;;;;;4245096;33;20807;-59
2022/08/14 13:39:08;;;;;;;4.35;2.17;;;;;;;;;;4245299;33;20200;-60
2022/08/14 13:41:34;;;;;;;2.92;1.83;;;;;;;;;;4245160;33;20100;-59
2022/08/14 13:44:00;;;;;;;1.70;1.60;;;;;;;;;;4245321;33;20120;-60
2022/08/14 13:46:26;;;;;;;2.97;1.80;;;;;;;;;;4244011;33;20133;-59
2022/08/14 13:48:52;;;;;;;6.22;2.20;;;;;;;;;;4246360;33;20108;-59
2022/08/14 13:51:23;;;;;;;2.80;2.12;;;;;;;;;;4246511;33;20196;-60
2022/08/14 13:53:49;;;;;;;5.32;1.75;;;;;;;;;;4246541;33;20113;-60
2022/08/14 13:56:15;;;;;;;2.42;1.80;;;;;;;;;;4246614;33;20109;-60
2022/08/14 13:58:46;;;;;;;1.65;1.52;;;;;;;;;;4246431;33;20207;-61
2022/08/14 14:01:14;;;;;;;1.70;1.60;;;;;;;;;;4246275;33;20107;-59
2022/08/14 14:03:45;;;;;;;1.62;1.52;;;;;;;;;;4246490;33;20105;-59
2022/08/14 14:06:14;;;;;;;4.03;1.73;;;;;;;;;;4246886;33;20101;-60
2022/08/14 14:08:47;;;;;;;7.32;2.22;;;;;;;;;;4246466;33;20104;-60
2022/08/14 14:11:24;;;;;;;1.73;1.62;;;;;;;;;;4246619;33;20192;-60
2022/08/14 14:13:52;;;;;;;4.00;1.48;;;;;;;;;;4245298;33;20104;-60
2022/08/14 14:16:19;;;;;;;7.03;2.28;;;;;;;;;;4246244;33;20193;-60
2022/08/14 14:18:54;;;;;;;4.05;1.87;;;;;;;;;;4246102;33;20080;-60
2022/08/14 14:21:22;;;;;;;13.32;2.25;;;;;;;;;;4244844;33;20128;-60
2022/08/14 14:23:50;;;;;;;3.12;2.15;;;;;;;;;;4232056;33;20195;-59
2022/08/14 14:26:18;;;;;;;2.97;2.12;;;;;;;;;;4251798;33;20466;-60
2022/08/14 14:28:50;;;;;;;3.12;1.87;;;;;;;;;;4259954;33;20112;-60
2022/08/14 14:31:22;;;;;;;3.55;1.87;;;;;;;;;;4260232;33;20188;-59
2022/08/14 14:33:52;;;;;;;8.88;2.30;;;;;;;;;;4247606;33;20112;-59
2022/08/14 14:36:25;;;;;;;4.43;2.47;;;;;;;;;;4234083;33;20509;-59
2022/08/14 14:39:00;;;;;;;8.15;2.50;;;;;;;;;;4243235;33;20100;-59
2022/08/14 14:41:28;;;;;;;8.82;2.60;;;;;;;;;;4247373;33;20111;-60
2022/08/14 14:43:56;;;;;;;6.78;2.30;;;;;;;;;;4250506;33;20104;-60
2022/08/14 14:46:23;;;;;;;3.12;2.12;;;;;;;;;;4244866;33;20543;-61
2022/08/14 14:48:49;;;;;;;8.13;2.10;;;;;;;;;;4244274;33;20211;-62
2022/08/14 14:51:16;;;;;;;5.82;2.10;;;;;;;;;;4245358;33;20120;-61
2022/08/14 14:53:43;;;;;;;10.57;2.75;;;;;;;;;;4244612;33;20207;-60
2022/08/14 14:56:09;;;;;;;3.67;2.53;;;;;;;;;;4246309;33;20105;-59
2022/08/14 14:58:37;;;;;;;3.87;2.30;;;;;;;;;;4245856;33;20109;-60
2022/08/14 15:01:04;;;;;;;6.20;2.45;;;;;;;;;;4245362;33;20525;-60
2022/08/14 15:03:32;;;;;;;3.05;2.40;;;;;;;;;;4245538;33;20190;-59
2022/08/14 15:05:58;;;;;;;5.50;1.83;;;;;;;;;;4244748;33;20119;-61
2022/08/14 15:08:24;;;;;;;2.92;2.08;;;;;;;;;;4244415;33;20537;-59
2022/08/14 15:10:52;;;;;;;3.72;1.92;;;;;;;;;;4245820;33;20137;-66
2022/08/14 15:13:18;;;;;;;2.20;2.00;;;;;;;;;;4221486;33;20131;-61
2022/08/14 15:15:44;;;;;;;4.72;1.77;;;;;;;;;;4232970;33;20130;-64
2022/08/14 15:18:10;;;;;;;1.70;1.60;;;;;;;;;;4244904;33;20096;-60
2022/08/14 15:20:36;;;;;;;5.70;2.15;;;;;;;;;;4249653;33;20219;-60
2022/08/14 15:23:04;;;;;;;5.32;2.35;;;;;;;;;;4244387;33;20128;-60
2022/08/14 15:25:30;;;;;;;7.10;2.05;;;;;;;;;;4244529;33;20104;-61
2022/08/14 15:27:57;;;;;;;6.70;2.00;;;;;;;;;;4236996;33;20213;-59
2022/08/14 15:30:24;;;;;;;6.00;2.55;;;;;;;;;;4252924;33;20222;-62
2022/08/14 15:32:50;;;;;;;5.60;1.90;;;;;;;;;;4259594;33;20116;-62
2022/08/14 15:35:16;;;;;;;4.28;1.90;;;;;;;;;;4246426;33;20530;-60
2022/08/14 15:37:42;;;;;;;5.47;2.20;;;;;;;;;;4246312;33;20132;-60